Time;durP1;ratioP1;P1;durP2;ratioP2;P2;SDS_P1;SDS_P2;PMS_P1;PMS_P2;Temp;Humidity;BMP_temperature;BMP_pressure;BME280_temperature;BME280_humidity;BME280_pressure;Samples;Min_cycle;Max_cycle;Signal;HPM_P1;HPM_P2
2023/05/06 00:01:32;;;;;;;11.32;10.13;;;14.40;99.90;;;;;;5044255;28;20263;-73
2023/05/06 00:03:58;;;;;;;11.63;10.43;;;14.40;99.90;;;;;;5050318;28;20237;-73
2023/05/06 00:06:24;;;;;;;11.30;9.98;;;14.30;99.90;;;;;;5059766;28;20727;-72
2023/05/06 00:08:49;;;;;;;10.05;9.15;;;14.30;99.90;;;;;;5057682;28;20191;-73
2023/05/06 00:11:15;;;;;;;10.82;9.82;;;14.30;99.90;;;;;;5059068;28;20176;-73
2023/05/06 00:13:41;;;;;;;10.10;9.18;;;14.20;99.90;;;;;;5057293;28;20238;-73
2023/05/06 00:16:07;;;;;;;10.10;8.93;;;14.30;99.90;;;;;;5049630;28;20665;-73
2023/05/06 00:18:32;;;;;;;12.10;9.80;;;14.20;99.90;;;;;;5046543;28;20192;-72
2023/05/06 00:20:58;;;;;;;10.13;9.05;;;14.20;99.90;;;;;;5054137;28;20709;-72
2023/05/06 00:23:24;;;;;;;10.07;9.07;;;14.10;99.90;;;;;;5048706;28;20192;-73
2023/05/06 00:25:49;;;;;;;9.60;8.30;;;14.10;99.90;;;;;;5051821;28;20187;-74
2023/05/06 00:28:15;;;;;;;8.55;7.78;;;14.10;99.90;;;;;;5050361;28;20257;-73
2023/05/06 00:30:42;;;;;;;8.27;7.55;;;14.10;99.90;;;;;;5049437;28;20784;-73
2023/05/06 00:33:07;;;;;;;9.48;7.47;;;14.00;99.90;;;;;;5056489;28;20293;-73
2023/05/06 00:35:33;;;;;;;7.97;7.18;;;14.00;99.90;;;;;;5052877;28;20172;-73
2023/05/06 00:38:14;;;;;;;7.38;6.72;;;14.10;99.90;;;;;;5057764;28;20200;-73
2023/05/06 00:40:40;;;;;;;7.72;7.10;;;13.90;99.90;;;;;;5052269;28;20187;-73
2023/05/06 00:43:05;;;;;;;7.57;6.88;;;13.90;99.90;;;;;;5055051;28;20180;-74
2023/05/06 00:45:32;;;;;;;7.43;6.78;;;13.80;99.90;;;;;;5055500;28;20179;-73
2023/05/06 00:47:58;;;;;;;7.57;6.90;;;13.60;99.90;;;;;;5055093;28;20204;-74
2023/05/06 00:50:26;;;;;;;8.00;6.90;;;13.60;99.90;;;;;;5051455;28;20207;-74
2023/05/06 00:52:53;;;;;;;7.65;7.05;;;13.60;99.90;;;;;;5051614;28;20224;-72
2023/05/06 00:55:20;;;;;;;7.90;7.07;;;13.60;99.90;;;;;;5065553;28;20180;-72
2023/05/06 00:57:48;;;;;;;8.18;7.45;;;13.50;99.90;;;;;;5050753;28;20211;-72
2023/05/06 01:00:14;;;;;;;7.70;6.85;;;13.40;99.90;;;;;;5051555;28;20192;-72
2023/05/06 01:02:40;;;;;;;7.25;6.55;;;13.40;99.90;;;;;;5051544;28;20200;-74
2023/05/06 01:05:08;;;;;;;8.10;7.50;;;13.50;99.90;;;;;;5051874;28;20237;-73
2023/05/06 01:07:45;;;;;;;8.48;7.45;;;13.60;99.90;;;;;;5052282;28;20736;-74
2023/05/06 01:10:18;;;;;;;7.80;7.10;;;13.50;99.90;;;;;;5051523;28;20202;-72
2023/05/06 01:13:22;;;;;;;8.75;6.82;;;13.60;99.90;;;;;;5055854;28;20172;-73
2023/05/06 01:15:53;;;;;;;7.80;6.63;;;13.50;99.90;;;;;;5040256;28;20206;-74
2023/05/06 01:18:21;;;;;;;7.15;6.55;;;13.50;99.90;;;;;;5051319;28;20200;-73
2023/05/06 01:20:51;;;;;;;8.85;6.70;;;13.50;99.90;;;;;;5059390;28;20184;-73
2023/05/06 01:23:17;;;;;;;7.68;6.97;;;13.40;99.90;;;;;;5049531;28;20287;-72
2023/05/06 01:25:43;;;;;;;8.00;7.20;;;13.30;99.90;;;;;;5058028;28;20262;-73
2023/05/06 01:28:10;;;;;;;9.70;6.85;;;13.20;99.90;;;;;;5051131;28;20196;-74
2023/05/06 01:30:53;;;;;;;8.10;6.55;;;13.30;99.90;;;;;;5055403;28;20582;-73
2023/05/06 01:33:43;;;;;;;9.52;7.50;;;13.30;99.90;;;;;;5055057;28;20182;-73
2023/05/06 01:36:25;;;;;;;7.40;6.72;;;13.20;99.90;;;;;;5070136;28;20175;-72
2023/05/06 01:39:11;;;;;;;9.20;7.35;;;13.10;99.90;;;;;;5054687;28;20168;-73
2023/05/06 01:41:40;;;;;;;8.57;7.00;;;13.10;99.90;;;;;;5055360;28;20393;-73
2023/05/06 01:44:07;;;;;;;9.70;7.50;;;13.10;99.90;;;;;;5074646;28;20179;-73
2023/05/06 01:46:34;;;;;;;7.50;6.90;;;13.10;99.90;;;;;;5054851;28;21715;-73
2023/05/06 01:49:04;;;;;;;8.25;7.55;;;13.10;99.90;;;;;;5052833;28;20195;-73
2023/05/06 01:51:32;;;;;;;8.40;7.53;;;13.10;99.90;;;;;;5053643;28;20168;-73
2023/05/06 01:53:58;;;;;;;8.30;7.18;;;13.20;99.90;;;;;;5058072;28;20245;-73
2023/05/06 01:56:25;;;;;;;8.40;7.03;;;13.20;99.90;;;;;;5047590;28;20655;-73
2023/05/06 01:58:51;;;;;;;11.02;7.57;;;13.20;99.90;;;;;;5056548;28;20179;-73
2023/05/06 02:01:17;;;;;;;7.55;6.80;;;13.30;99.90;;;;;;5062646;28;20172;-72
2023/05/06 02:03:42;;;;;;;8.10;7.30;;;13.30;99.90;;;;;;5054915;28;20647;-73
2023/05/06 02:06:08;;;;;;;7.55;6.85;;;13.30;99.90;;;;;;5055323;28;20187;-73
2023/05/06 02:08:33;;;;;;;8.13;7.35;;;13.30;99.90;;;;;;5055735;28;20200;-72
2023/05/06 02:10:59;;;;;;;8.13;7.28;;;13.30;99.90;;;;;;5058960;28;20253;-72
2023/05/06 02:13:24;;;;;;;8.18;7.43;;;13.30;99.90;;;;;;5060339;28;20168;-73
2023/05/06 02:15:53;;;;;;;7.68;6.95;;;13.30;99.90;;;;;;5054782;28;20668;-74
2023/05/06 02:18:19;;;;;;;8.25;7.10;;;13.30;99.90;;;;;;5054773;28;20246;-74
2023/05/06 02:20:44;;;;;;;8.07;7.22;;;13.20;99.90;;;;;;5046435;28;20655;-74
2023/05/06 02:23:10;;;;;;;7.50;6.82;;;13.30;99.90;;;;;;5048400;28;20199;-72
2023/05/06 02:25:36;;;;;;;7.78;7.05;;;13.30;99.90;;;;;;5065244;28;20234;-72
2023/05/06 02:28:01;;;;;;;7.25;6.65;;;13.20;99.90;;;;;;5059217;28;20278;-73
2023/05/06 02:30:29;;;;;;;7.65;7.05;;;13.20;99.90;;;;;;5060099;28;20199;-73
2023/05/06 02:32:56;;;;;;;8.15;7.40;;;13.30;99.90;;;;;;5055421;28;20187;-73
2023/05/06 02:35:22;;;;;;;10.68;7.47;;;13.30;99.90;;;;;;5054105;28;20255;-73
2023/05/06 02:37:47;;;;;;;8.20;7.25;;;13.20;99.90;;;;;;5055771;28;20338;-73
2023/05/06 02:40:13;;;;;;;8.10;7.30;;;13.30;99.90;;;;;;5053381;28;20211;-73
2023/05/06 02:42:40;;;;;;;8.30;7.50;;;13.20;99.90;;;;;;5056520;28;20710;-72
2023/05/06 02:45:06;;;;;;;7.85;7.18;;;13.20;99.90;;;;;;5057684;28;20188;-73
2023/05/06 02:47:32;;;;;;;9.52;7.18;;;13.10;99.90;;;;;;5053463;28;20203;-73
2023/05/06 02:49:57;;;;;;;8.27;7.57;;;13.00;99.90;;;;;;5050637;28;20571;-74
2023/05/06 02:52:23;;;;;;;7.45;6.78;;;13.00;99.90;;;;;;5049955;28;20211;-72
2023/05/06 02:54:49;;;;;;;8.93;7.72;;;13.10;99.90;;;;;;5051362;28;20180;-73
2023/05/06 02:57:15;;;;;;;8.52;7.70;;;13.10;99.90;;;;;;5049639;28;20203;-72
2023/05/06 02:59:40;;;;;;;8.48;7.68;;;13.10;99.90;;;;;;5054496;28;20191;-73
2023/05/06 03:02:06;;;;;;;10.75;7.95;;;13.10;99.90;;;;;;5054031;28;20187;-74
2023/05/06 03:04:32;;;;;;;9.82;7.75;;;13.10;99.90;;;;;;5052107;28;20180;-73
2023/05/06 03:06:58;;;;;;;8.40;7.70;;;13.00;99.90;;;;;;5054042;28;20204;-73
2023/05/06 03:09:23;;;;;;;9.13;8.18;;;13.00;99.90;;;;;;5056954;28;20348;-72
2023/05/06 03:11:49;;;;;;;9.00;8.10;;;13.00;99.90;;;;;;5053505;28;20747;-73
2023/05/06 03:14:15;;;;;;;10.07;9.18;;;13.00;99.90;;;;;;5059225;28;20230;-72
2023/05/06 03:16:40;;;;;;;11.00;9.90;;;13.00;99.90;;;;;;5055555;28;20262;-74
2023/05/06 03:19:06;;;;;;;11.27;9.38;;;13.00;99.90;;;;;;5053464;28;20192;-72
2023/05/06 03:21:32;;;;;;;10.02;9.02;;;13.00;99.90;;;;;;5060239;28;20628;-72
2023/05/06 03:23:57;;;;;;;12.15;9.98;;;12.90;99.90;;;;;;5054922;28;20172;-73
2023/05/06 03:26:23;;;;;;;11.98;10.10;;;12.80;99.90;;;;;;5061292;28;20176;-72
2023/05/06 03:28:49;;;;;;;9.80;8.90;;;12.80;99.90;;;;;;5051089;28;20546;-74
2023/05/06 03:31:14;;;;;;;9.80;8.80;;;12.80;99.90;;;;;;5052777;28;20172;-72
2023/05/06 03:33:40;;;;;;;10.15;9.18;;;12.70;99.90;;;;;;5056757;28;20180;-72
2023/05/06 03:36:06;;;;;;;10.73;9.45;;;12.70;99.90;;;;;;5057001;28;20186;-72
2023/05/06 03:38:32;;;;;;;10.35;9.20;;;12.60;99.90;;;;;;5052468;28;20200;-72
2023/05/06 03:40:57;;;;;;;10.90;9.32;;;12.60;99.90;;;;;;5054426;28;20563;-73
2023/05/06 03:43:23;;;;;;;11.10;9.65;;;12.60;99.90;;;;;;5057336;28;20208;-72
2023/05/06 03:45:48;;;;;;;10.00;9.10;;;12.60;99.90;;;;;;5051462;28;20740;-72
2023/05/06 03:48:14;;;;;;;11.70;9.73;;;12.60;99.90;;;;;;5055378;28;20195;-73
2023/05/06 03:50:40;;;;;;;11.30;9.68;;;12.60;99.90;;;;;;5055753;28;20555;-73
2023/05/06 03:53:05;;;;;;;11.20;8.88;;;12.60;99.90;;;;;;5055692;28;20180;-74
2023/05/06 03:55:31;;;;;;;12.40;9.55;;;12.60;99.90;;;;;;5049474;28;20214;-73
2023/05/06 03:57:57;;;;;;;13.38;10.13;;;12.70;99.90;;;;;;5051950;28;20747;-73
2023/05/06 04:00:22;;;;;;;12.25;9.45;;;12.70;99.90;;;;;;5053877;28;20176;-72
2023/05/06 04:02:48;;;;;;;11.57;9.18;;;12.80;99.90;;;;;;5049777;28;20652;-73
2023/05/06 04:05:16;;;;;;;12.25;10.05;;;12.80;99.90;;;;;;5052142;28;20659;-72
2023/05/06 04:07:42;;;;;;;11.63;9.30;;;12.90;99.90;;;;;;5050689;28;20617;-73
2023/05/06 04:10:08;;;;;;;13.32;9.88;;;12.90;99.90;;;;;;5054008;28;20205;-72
2023/05/06 04:12:33;;;;;;;10.40;9.40;;;12.90;99.90;;;;;;5048561;28;20176;-72
2023/05/06 04:14:59;;;;;;;11.45;10.25;;;13.00;99.90;;;;;;5053544;28;20523;-72
2023/05/06 04:17:24;;;;;;;14.07;10.10;;;13.00;99.90;;;;;;5056240;28;20199;-73
2023/05/06 04:19:52;;;;;;;12.88;9.80;;;13.00;99.90;;;;;;5054773;28;20187;-72
2023/05/06 04:22:18;;;;;;;10.45;9.45;;;13.00;99.90;;;;;;5056988;28;20187;-73
2023/05/06 04:24:44;;;;;;;12.27;10.23;;;13.10;99.90;;;;;;5045155;28;20193;-72
2023/05/06 04:27:10;;;;;;;11.30;10.20;;;13.10;99.90;;;;;;5053819;28;20275;-72
2023/05/06 04:29:36;;;;;;;9.90;9.00;;;13.10;99.90;;;;;;5048653;28;20235;-72
2023/05/06 04:32:02;;;;;;;12.73;10.02;;;13.10;99.90;;;;;;5048928;28;20774;-73
2023/05/06 04:34:27;;;;;;;11.48;10.18;;;13.10;99.90;;;;;;5051838;28;20168;-73
2023/05/06 04:36:53;;;;;;;14.48;10.35;;;13.20;99.90;;;;;;5058988;28;20195;-73
2023/05/06 04:39:19;;;;;;;10.25;9.15;;;13.30;99.90;;;;;;5055686;28;20172;-74
2023/05/06 04:41:44;;;;;;;10.82;9.23;;;13.40;99.90;;;;;;5050791;28;20748;-72
2023/05/06 04:44:10;;;;;;;13.23;9.60;;;13.50;99.90;;;;;;5053312;28;20654;-72
2023/05/06 04:46:36;;;;;;;9.73;8.75;;;13.60;99.90;;;;;;5051591;28;20183;-73
2023/05/06 04:49:02;;;;;;;10.73;9.68;;;13.70;99.90;;;;;;5046575;28;20317;-73
2023/05/06 04:51:27;;;;;;;13.07;10.10;;;13.70;99.90;;;;;;5045928;28;20173;-73
2023/05/06 04:53:53;;;;;;;10.60;9.50;;;13.70;99.90;;;;;;5054405;28;20666;-73
2023/05/06 04:56:18;;;;;;;11.40;10.30;;;13.60;99.90;;;;;;5051893;28;20172;-72
2023/05/06 04:58:44;;;;;;;12.55;10.20;;;13.60;99.90;;;;;;5048504;28;20195;-72
2023/05/06 05:01:10;;;;;;;10.95;9.95;;;13.60;99.90;;;;;;5047563;28;20715;-73
2023/05/06 05:03:36;;;;;;;12.05;10.75;;;13.60;99.90;;;;;;5053804;28;20179;-73
2023/05/06 05:06:01;;;;;;;11.68;10.55;;;13.70;99.90;;;;;;5049041;28;20273;-75
2023/05/06 05:08:27;;;;;;;11.88;10.70;;;13.70;99.90;;;;;;5050119;28;20203;-76
2023/05/06 05:10:52;;;;;;;11.43;10.30;;;13.70;99.90;;;;;;5051566;28;20619;-76
2023/05/06 05:13:19;;;;;;;11.95;10.60;;;13.80;99.90;;;;;;5048580;28;20228;-76
2023/05/06 05:15:45;;;;;;;11.27;10.00;;;13.90;99.90;;;;;;5046610;28;20271;-74
2023/05/06 05:18:11;;;;;;;11.15;10.05;;;14.00;99.90;;;;;;5056196;28;20652;-75
2023/05/06 05:20:36;;;;;;;11.93;10.60;;;14.00;99.90;;;;;;5052484;28;20187;-76
2023/05/06 05:23:02;;;;;;;12.77;10.18;;;14.10;99.90;;;;;;5050062;28;20620;-74
2023/05/06 05:25:27;;;;;;;11.95;10.75;;;14.10;99.90;;;;;;5051396;28;20184;-73
2023/05/06 05:27:53;;;;;;;10.20;9.30;;;14.30;99.90;;;;;;5048036;28;20208;-74
2023/05/06 05:30:19;;;;;;;10.73;9.63;;;14.40;99.90;;;;;;5051542;28;20207;-75
2023/05/06 05:32:45;;;;;;;9.50;8.63;;;14.40;99.90;;;;;;5054297;28;20196;-75
2023/05/06 05:35:10;;;;;;;10.13;9.13;;;14.50;99.90;;;;;;5051447;28;20207;-75
2023/05/06 05:37:36;;;;;;;9.88;9.02;;;14.60;99.90;;;;;;5050356;28;20239;-74
2023/05/06 05:40:03;;;;;;;9.73;8.82;;;14.70;99.90;;;;;;5049514;28;20270;-74
2023/05/06 05:42:32;;;;;;;9.55;8.32;;;14.90;99.90;;;;;;5052783;28;20860;-73
2023/05/06 05:44:58;;;;;;;9.20;8.30;;;15.10;99.90;;;;;;5046459;28;20592;-75
2023/05/06 05:47:24;;;;;;;8.52;7.75;;;15.30;99.90;;;;;;5051932;28;20205;-76
2023/05/06 05:49:49;;;;;;;8.05;7.38;;;15.40;99.90;;;;;;5051693;28;20705;-75
2023/05/06 05:52:15;;;;;;;8.20;7.50;;;15.30;99.90;;;;;;5051432;28;20706;-74
2023/05/06 05:54:40;;;;;;;9.20;8.10;;;15.30;99.90;;;;;;5050901;28;20733;-75
2023/05/06 05:57:06;;;;;;;8.20;7.20;;;15.30;99.90;;;;;;5049037;28;20211;-73
2023/05/06 05:59:32;;;;;;;7.68;7.03;;;15.30;99.90;;;;;;5047274;28;20205;-74
2023/05/06 06:01:58;;;;;;;7.93;7.32;;;15.20;99.90;;;;;;5050531;28;20183;-73
2023/05/06 06:04:23;;;;;;;8.90;8.10;;;15.00;99.90;;;;;;5052768;28;20215;-73
2023/05/06 06:06:49;;;;;;;8.68;7.93;;;15.00;99.90;;;;;;5050562;28;21980;-74
2023/05/06 06:09:16;;;;;;;8.73;8.02;;;15.00;99.90;;;;;;5051475;28;20208;-72
2023/05/06 06:11:42;;;;;;;8.70;7.90;;;14.80;99.90;;;;;;5056140;28;20188;-73
2023/05/06 06:14:07;;;;;;;8.90;8.00;;;14.80;99.90;;;;;;5049519;28;20187;-73
2023/05/06 06:16:34;;;;;;;8.88;8.18;;;14.80;99.90;;;;;;5058738;28;20553;-73
2023/05/06 06:19:00;;;;;;;9.07;8.27;;;15.00;99.90;;;;;;5053324;28;20180;-73
2023/05/06 06:21:26;;;;;;;9.35;8.45;;;15.10;99.90;;;;;;5055409;28;20187;-72
2023/05/06 06:23:52;;;;;;;8.82;7.93;;;15.30;99.90;;;;;;5056582;28;20180;-72
2023/05/06 06:26:17;;;;;;;8.77;7.97;;;15.30;99.90;;;;;;5057071;28;20187;-72
2023/05/06 06:28:43;;;;;;;9.48;8.55;;;15.30;99.90;;;;;;5052120;28;20195;-72
2023/05/06 06:31:09;;;;;;;8.68;8.05;;;15.30;99.90;;;;;;5054686;28;20738;-73
2023/05/06 06:33:35;;;;;;;9.68;8.82;;;15.20;99.90;;;;;;5053297;28;20183;-73
2023/05/06 06:36:01;;;;;;;9.13;8.35;;;15.30;99.90;;;;;;5057663;28;20172;-72
2023/05/06 06:38:26;;;;;;;9.15;8.35;;;15.40;99.90;;;;;;5054914;28;20191;-72
2023/05/06 06:40:52;;;;;;;9.15;8.25;;;15.70;99.90;;;;;;5048288;28;20190;-72
2023/05/06 06:43:18;;;;;;;10.20;9.15;;;15.80;99.90;;;;;;5047593;28;20184;-73
2023/05/06 06:45:47;;;;;;;8.82;8.02;;;15.70;99.90;;;;;;5056807;28;20743;-72
2023/05/06 06:48:13;;;;;;;9.07;8.27;;;15.80;99.90;;;;;;5049728;28;20216;-73
2023/05/06 06:50:38;;;;;;;9.60;8.80;;;15.90;99.90;;;;;;5052120;28;20195;-72
2023/05/06 06:53:04;;;;;;;9.18;8.27;;;15.90;99.90;;;;;;5051411;28;20233;-72
2023/05/06 06:55:29;;;;;;;8.93;8.13;;;16.10;99.90;;;;;;5049475;28;20206;-73
2023/05/06 06:57:55;;;;;;;8.63;7.88;;;16.30;99.90;;;;;;5052058;28;20254;-72
2023/05/06 07:00:20;;;;;;;8.75;8.05;;;16.30;99.90;;;;;;5054026;28;20677;-73
2023/05/06 07:02:47;;;;;;;9.57;8.60;;;16.40;99.90;;;;;;5047450;28;20271;-73
2023/05/06 07:05:13;;;;;;;9.07;8.18;;;16.50;99.90;;;;;;5047141;28;20210;-73
2023/05/06 07:07:38;;;;;;;10.93;9.13;;;16.40;99.90;;;;;;5050709;28;20203;-73
2023/05/06 07:10:05;;;;;;;9.95;9.00;;;16.40;99.90;;;;;;5048003;28;20209;-73
2023/05/06 07:12:30;;;;;;;9.88;8.88;;;16.50;99.90;;;;;;5052114;28;20259;-73
2023/05/06 07:14:56;;;;;;;9.05;8.25;;;16.40;99.90;;;;;;5049376;28;20266;-73
2023/05/06 07:17:22;;;;;;;9.38;8.27;;;16.50;99.90;;;;;;5054682;28;20196;-72
2023/05/06 07:19:47;;;;;;;9.48;7.68;;;16.60;99.90;;;;;;5052577;28;20188;-73
2023/05/06 07:22:13;;;;;;;9.05;8.10;;;16.70;99.90;;;;;;5043812;28;20253;-73
2023/05/06 07:24:38;;;;;;;8.32;7.72;;;16.70;99.90;;;;;;5069931;28;20183;-73
2023/05/06 07:27:04;;;;;;;8.68;7.97;;;16.80;99.90;;;;;;5052347;28;20694;-73
2023/05/06 07:29:30;;;;;;;8.07;7.28;;;16.80;99.90;;;;;;5051928;28;20207;-73
2023/05/06 07:31:55;;;;;;;8.57;7.78;;;16.90;99.90;;;;;;5049485;28;20613;-72
2023/05/06 07:34:22;;;;;;;8.43;7.72;;;16.80;99.90;;;;;;5050045;28;20641;-72
2023/05/06 07:36:49;;;;;;;8.95;8.15;;;16.80;99.90;;;;;;5052332;28;20258;-73
2023/05/06 07:39:15;;;;;;;8.52;7.80;;;17.10;99.90;;;;;;5051010;28;20172;-72
2023/05/06 07:41:40;;;;;;;7.95;7.35;;;17.30;99.90;;;;;;5053016;28;20230;-73
2023/05/06 07:44:06;;;;;;;8.77;7.93;;;17.60;99.90;;;;;;5056241;28;20189;-73
2023/05/06 07:46:31;;;;;;;8.57;7.78;;;17.80;99.90;;;;;;5046994;28;20191;-72
2023/05/06 07:48:57;;;;;;;8.52;7.90;;;17.80;99.90;;;;;;5052213;28;20183;-73
2023/05/06 07:51:23;;;;;;;8.27;7.65;;;17.90;99.90;;;;;;5054374;28;20241;-73
2023/05/06 07:53:48;;;;;;;7.35;6.75;;;18.00;99.90;;;;;;5054010;28;20209;-72
2023/05/06 07:56:14;;;;;;;8.35;7.55;;;18.10;99.90;;;;;;5051733;28;20175;-72
2023/05/06 07:58:39;;;;;;;7.63;6.93;;;18.10;99.90;;;;;;5054392;28;20191;-73
2023/05/06 08:01:05;;;;;;;7.65;6.95;;;18.00;99.90;;;;;;5051640;28;20177;-73
2023/05/06 08:03:31;;;;;;;8.05;7.30;;;18.00;99.90;;;;;;5055702;28;20650;-73
2023/05/06 08:05:57;;;;;;;7.38;6.68;;;18.10;99.90;;;;;;5057266;28;20191;-73
2023/05/06 08:08:26;;;;;;;7.43;6.88;;;18.10;99.90;;;;;;5054609;28;20195;-73
2023/05/06 08:10:54;;;;;;;7.43;6.80;;;18.10;99.90;;;;;;5051611;28;20204;-73
2023/05/06 08:13:20;;;;;;;8.02;7.32;;;18.00;99.90;;;;;;5053784;28;20183;-74
2023/05/06 08:15:45;;;;;;;7.82;7.13;;;18.00;99.90;;;;;;5048342;28;20257;-73
2023/05/06 08:18:11;;;;;;;8.13;7.05;;;18.10;99.90;;;;;;5051326;28;20214;-73
2023/05/06 08:20:36;;;;;;;7.32;6.65;;;18.20;99.90;;;;;;5049159;28;20727;-73
2023/05/06 08:23:02;;;;;;;7.97;6.65;;;18.30;99.90;;;;;;5053664;28;20192;-73
2023/05/06 08:25:27;;;;;;;6.93;6.32;;;18.20;99.90;;;;;;5052014;28;20175;-73
2023/05/06 08:27:53;;;;;;;7.57;6.75;;;18.20;99.90;;;;;;5052874;28;20191;-72
2023/05/06 08:30:19;;;;;;;8.25;7.55;;;18.10;99.90;;;;;;5048846;28;20342;-73
2023/05/06 08:32:44;;;;;;;7.45;6.88;;;18.20;99.90;;;;;;5047483;28;20184;-73
2023/05/06 08:35:10;;;;;;;7.05;6.40;;;18.30;99.90;;;;;;5047371;28;20482;-73
2023/05/06 08:37:35;;;;;;;7.88;6.38;;;18.60;99.90;;;;;;5056632;28;20280;-72
2023/05/06 08:40:04;;;;;;;6.10;5.50;;;18.70;99.90;;;;;;5051910;28;20217;-72
2023/05/06 08:42:31;;;;;;;5.60;5.20;;;19.10;99.90;;;;;;5057074;28;20186;-73
2023/05/06 08:44:58;;;;;;;4.97;4.57;;;19.70;99.90;;;;;;5049269;28;20183;-73
2023/05/06 08:47:24;;;;;;;5.82;4.75;;;19.90;99.90;;;;;;5051631;28;20199;-73
2023/05/06 08:49:49;;;;;;;4.15;3.85;;;20.00;99.90;;;;;;5051945;28;20208;-73
2023/05/06 08:52:16;;;;;;;4.25;3.85;;;20.00;99.90;;;;;;5049501;28;20184;-73
2023/05/06 08:54:42;;;;;;;4.13;3.72;;;20.10;99.90;;;;;;5050088;28;20647;-73
2023/05/06 08:57:11;;;;;;;4.13;3.83;;;20.40;99.90;;;;;;5051194;28;20684;-73
2023/05/06 08:59:36;;;;;;;4.60;3.40;;;20.50;99.90;;;;;;5051505;28;20183;-73
2023/05/06 09:02:03;;;;;;;3.97;3.67;;;20.60;99.90;;;;;;5052107;28;20179;-73
2023/05/06 09:04:29;;;;;;;3.75;3.45;;;20.70;99.90;;;;;;5049357;28;20211;-73
2023/05/06 09:06:57;;;;;;;3.42;3.13;;;20.80;99.90;;;;;;5053244;28;20656;-73
2023/05/06 09:09:23;;;;;;;3.05;2.85;;;20.80;99.90;;;;;;5047266;28;20223;-72
2023/05/06 09:11:56;;;;;;;3.42;3.22;;;20.60;99.90;;;;;;5051574;28;20250;-73
2023/05/06 09:14:22;;;;;;;3.00;2.80;;;20.30;99.90;;;;;;5049697;28;20547;-73
2023/05/06 09:16:51;;;;;;;3.05;2.85;;;20.30;99.90;;;;;;5049472;28;20199;-73
2023/05/06 09:19:18;;;;;;;3.53;3.22;;;20.60;99.90;;;;;;5045707;28;20203;-73
2023/05/06 09:21:46;;;;;;;3.10;2.85;;;21.10;99.90;;;;;;5052002;28;20192;-73
2023/05/06 09:24:14;;;;;;;2.33;2.17;;;22.20;99.90;;;;;;5044249;28;20181;-73
2023/05/06 09:26:41;;;;;;;2.22;2.00;;;23.40;99.90;;;;;;5051606;28;20203;-73
2023/05/06 09:29:07;;;;;;;2.35;2.15;;;24.40;99.90;;;;;;5053789;28;20176;-73
2023/05/06 09:31:40;;;;;;;2.17;2.00;;;24.40;99.90;;;;;;5055153;28;20175;-73
2023/05/06 09:34:06;;;;;;;2.22;2.13;;;24.20;99.90;;;;;;5049153;28;20195;-73
2023/05/06 09:36:32;;;;;;;2.72;2.05;;;24.60;99.90;;;;;;5051975;28;20218;-72
2023/05/06 09:38:57;;;;;;;2.13;1.88;;;24.90;99.90;;;;;;5048714;28;20172;-71
2023/05/06 09:41:24;;;;;;;1.63;1.52;;;24.70;99.90;;;;;;5054746;28;20176;-72
2023/05/06 09:43:52;;;;;;;2.25;1.80;;;24.50;99.90;;;;;;5057700;28;20194;-71
2023/05/06 09:46:19;;;;;;;1.73;1.63;;;25.10;98.80;;;;;;5053081;28;20233;-71
2023/05/06 09:48:46;;;;;;;2.08;1.92;;;26.00;93.20;;;;;;5054072;28;20690;-73
2023/05/06 09:51:12;;;;;;;1.92;1.83;;;25.70;93.10;;;;;;5053928;28;20291;-73
2023/05/06 09:53:38;;;;;;;1.90;1.80;;;25.00;94.80;;;;;;5052203;28;20313;-73
2023/05/06 09:56:07;;;;;;;2.28;1.73;;;24.50;94.50;;;;;;5051944;28;20284;-73
2023/05/06 09:58:37;;;;;;;1.83;1.73;;;24.20;99.90;;;;;;5059575;28;20237;-73
2023/05/06 10:01:06;;;;;;;2.10;1.90;;;23.80;99.90;;;;;;5050804;28;20191;-71
2023/05/06 10:03:33;;;;;;;1.77;1.55;;;24.20;99.90;;;;;;5049789;28;20662;-71
2023/05/06 10:06:04;;;;;;;2.75;1.70;;;24.00;95.60;;;;;;5049252;28;20192;-73
2023/05/06 10:08:32;;;;;;;1.85;1.75;;;23.30;96.20;;;;;;5053996;28;20207;-73
2023/05/06 10:11:00;;;;;;;1.98;1.88;;;22.80;95.10;;;;;;5050193;28;20211;-73
2023/05/06 10:13:26;;;;;;;1.60;1.50;;;22.50;99.90;;;;;;5053678;28;20192;-73
2023/05/06 10:15:52;;;;;;;1.85;1.65;;;22.40;99.90;;;;;;5056324;28;20246;-71
2023/05/06 10:18:20;;;;;;;1.77;1.42;;;23.30;99.90;;;;;;5056059;28;20248;-72
2023/05/06 10:20:47;;;;;;;2.80;1.50;;;24.70;98.40;;;;;;5050673;28;20276;-72
2023/05/06 10:23:32;;;;;;;1.60;1.50;;;25.90;98.80;;;;;;5052482;28;20679;-72
2023/05/06 10:26:09;;;;;;;3.13;1.45;;;27.10;87.30;;;;;;5049358;28;20688;-71
2023/05/06 10:28:42;;;;;;;1.33;1.23;;;27.60;82.70;;;;;;5052615;28;20203;-71
2023/05/06 10:31:12;;;;;;;2.15;1.45;;;27.80;87.20;;;;;;5056482;28;20198;-71
2023/05/06 10:33:43;;;;;;;1.20;1.10;;;28.30;86.30;;;;;;5052945;28;20206;-72
2023/05/06 10:36:27;;;;;;;1.60;1.50;;;28.80;85.10;;;;;;5053196;28;20186;-72
2023/05/06 10:38:55;;;;;;;1.45;1.35;;;29.10;76.40;;;;;;5052311;28;20725;-72
2023/05/06 10:41:22;;;;;;;1.83;1.65;;;28.80;76.40;;;;;;5056556;28;20195;-72
2023/05/06 10:43:54;;;;;;;1.00;1.00;;;28.90;78.80;;;;;;5053710;28;20183;-72
2023/05/06 10:46:20;;;;;;;1.20;1.10;;;29.50;75.60;;;;;;5049168;28;20192;-72
2023/05/06 10:49:15;;;;;;;1.15;1.15;;;30.20;73.10;;;;;;5047883;28;20621;-73
2023/05/06 10:51:40;;;;;;;1.17;0.95;;;30.60;66.70;;;;;;5049558;28;20195;-72
2023/05/06 10:54:07;;;;;;;1.08;0.70;;;30.30;67.00;;;;;;5049751;28;20561;-71
2023/05/06 10:56:54;;;;;;;1.45;1.35;;;30.10;65.40;;;;;;5047560;28;20175;-71
2023/05/06 10:59:21;;;;;;;1.02;1.02;;;29.60;66.90;;;;;;5043261;28;20194;-71
2023/05/06 11:02:05;;;;;;;1.92;1.30;;;29.10;66.70;;;;;;5046124;28;20184;-71
2023/05/06 11:04:31;;;;;;;1.27;1.17;;;28.70;64.30;;;;;;5046377;28;20171;-72
2023/05/06 11:07:11;;;;;;;1.70;1.23;;;28.50;66.20;;;;;;5045459;28;20200;-72
2023/05/06 11:10:00;;;;;;;1.20;1.20;;;28.60;72.30;;;;;;5048945;28;20705;-71
2023/05/06 11:12:54;;;;;;;1.85;1.23;;;29.10;74.60;;;;;;5048962;28;20190;-72
2023/05/06 11:15:25;;;;;;;1.02;1.02;;;29.80;64.60;;;;;;5051235;28;20194;-71
2023/05/06 11:17:55;;;;;;;1.95;1.00;;;29.40;65.70;;;;;;5052464;28;20203;-71
2023/05/06 11:20:24;;;;;;;1.08;1.00;;;29.10;65.50;;;;;;5049864;28;20274;-71
2023/05/06 11:22:49;;;;;;;1.35;1.20;;;28.90;71.80;;;;;;5049967;28;20192;-72
2023/05/06 11:25:37;;;;;;;1.02;1.02;;;28.80;65.60;;;;;;5054264;28;20186;-71
2023/05/06 11:28:10;;;;;;;1.98;1.08;;;28.70;65.50;;;;;;5052442;28;20203;-71
2023/05/06 11:30:39;;;;;;;1.30;1.10;;;28.80;62.90;;;;;;5048275;28;20207;-73
2023/05/06 11:33:07;;;;;;;2.13;1.13;;;28.40;67.50;;;;;;5053521;28;20201;-72
2023/05/06 11:35:36;;;;;;;1.40;1.30;;;27.80;67.40;;;;;;5051368;28;20206;-72
2023/05/06 11:38:02;;;;;;;1.10;0.93;;;27.40;72.10;;;;;;5049219;28;20227;-71
2023/05/06 11:40:29;;;;;;;2.15;1.38;;;27.80;69.60;;;;;;5050175;28;20179;-71
2023/05/06 11:42:55;;;;;;;2.65;1.08;;;28.30;67.50;;;;;;5054382;28;20661;-72
2023/05/06 11:45:21;;;;;;;0.80;0.80;;;28.90;69.00;;;;;;5052216;28;20198;-72
2023/05/06 11:47:46;;;;;;;0.90;0.90;;;29.50;62.60;;;;;;5055079;28;20208;-71
2023/05/06 11:50:12;;;;;;;1.67;0.80;;;29.50;67.20;;;;;;5049245;28;20723;-71
2023/05/06 11:52:38;;;;;;;2.90;1.15;;;29.40;61.30;;;;;;5051828;28;20179;-72
2023/05/06 11:55:08;;;;;;;1.20;1.02;;;29.10;69.40;;;;;;5049447;28;20207;-71
2023/05/06 11:57:34;;;;;;;2.08;0.88;;;28.40;64.40;;;;;;5050366;28;20195;-71
2023/05/06 12:00:00;;;;;;;1.90;1.40;;;27.70;67.00;;;;;;5069740;28;20194;-71
2023/05/06 12:02:25;;;;;;;2.40;0.82;;;27.50;73.40;;;;;;5050553;28;20183;-72
2023/05/06 12:04:51;;;;;;;1.45;1.00;;;27.40;68.40;;;;;;5048982;28;20175;-72
2023/05/06 12:07:17;;;;;;;1.08;0.95;;;27.00;69.40;;;;;;5050866;28;20197;-71
2023/05/06 12:09:46;;;;;;;0.77;0.77;;;26.30;75.80;;;;;;5048312;28;20207;-71
2023/05/06 12:12:16;;;;;;;1.10;1.10;;;26.10;75.00;;;;;;5048971;28;20198;-73
2023/05/06 12:14:43;;;;;;;0.90;0.90;;;26.20;75.70;;;;;;5055337;28;20674;-73
2023/05/06 12:17:09;;;;;;;2.10;0.82;;;26.60;71.70;;;;;;5054869;28;20200;-73
2023/05/06 12:19:35;;;;;;;1.10;0.90;;;26.40;72.10;;;;;;5049667;28;20183;-72
2023/05/06 12:22:37;;;;;;;1.50;0.98;;;25.90;68.30;;;;;;5048243;28;20686;-73
2023/05/06 12:25:13;;;;;;;2.20;1.05;;;25.40;73.50;;;;;;5025350;28;20180;-73
2023/05/06 12:27:39;;;;;;;1.35;0.90;;;25.50;77.30;;;;;;5050689;28;20211;-72
2023/05/06 12:30:07;;;;;;;2.08;1.02;;;25.90;69.00;;;;;;5049111;28;20262;-73
2023/05/06 12:32:33;;;;;;;1.77;0.88;;;26.90;69.80;;;;;;5051708;28;20194;-77
2023/05/06 12:35:04;;;;;;;1.23;1.00;;;28.00;61.00;;;;;;5047527;28;20183;-76
2023/05/06 12:37:30;;;;;;;2.00;1.23;;;28.40;63.80;;;;;;5046768;28;20206;-75
2023/05/06 12:39:56;;;;;;;2.67;0.85;;;28.50;60.30;;;;;;5047515;28;20183;-74
2023/05/06 12:42:22;;;;;;;0.80;0.80;;;28.70;59.80;;;;;;5051427;28;20294;-73
2023/05/06 12:44:49;;;;;;;3.35;0.98;;;28.80;62.10;;;;;;5052517;28;20179;-73